createdAt,value
2022-07-28T00:00:34.491Z,3.25
2022-07-28T00:03:10.818Z,2.60
2022-07-28T00:05:39.358Z,2.88
2022-07-28T00:08:07.891Z,2.28
2022-07-28T00:10:36.175Z,2.60
2022-07-28T00:13:06.862Z,2.17
2022-07-28T00:15:35.358Z,2.58
2022-07-28T00:18:03.795Z,2.40
2022-07-28T00:20:32.633Z,2.80
2022-07-28T00:23:00.878Z,2.55
2022-07-28T00:25:29.102Z,2.45
2022-07-28T00:27:57.530Z,2.65
2022-07-28T00:30:25.769Z,2.30
2022-07-28T00:32:54.021Z,2.58
2022-07-28T00:35:30.243Z,2.00
2022-07-28T00:38:00.302Z,2.55
2022-07-28T00:40:48.603Z,2.50
2022-07-28T00:43:17.040Z,2.67
2022-07-28T00:45:45.432Z,2.67
2022-07-28T00:48:13.762Z,2.53
2022-07-28T00:50:43.770Z,2.22
2022-07-28T00:53:12.431Z,2.22
2022-07-28T00:56:03.035Z,2.30
2022-07-28T00:58:30.572Z,2.50
2022-07-28T01:00:58.865Z,2.80
2022-07-28T01:03:29.041Z,2.50
2022-07-28T01:06:19.529Z,2.30
2022-07-28T01:09:04.476Z,2.17
2022-07-28T01:11:47.866Z,2.40
2022-07-28T01:14:48.930Z,2.28
2022-07-28T01:18:00.853Z,2.55
2022-07-28T01:20:39.073Z,2.40
2022-07-28T01:23:10.425Z,2.65
2022-07-28T01:25:48.819Z,2.50
2022-07-28T01:28:47.517Z,2.20
2022-07-28T01:31:24.845Z,2.40
2022-07-28T01:33:58.454Z,2.58
2022-07-28T01:36:37.229Z,2.20
2022-07-28T01:39:06.006Z,2.25
2022-07-28T01:41:36.646Z,2.40
2022-07-28T01:44:13.686Z,2.42
2022-07-28T01:46:44.559Z,2.30
2022-07-28T01:49:15.195Z,2.40
2022-07-28T01:51:45.030Z,2.20
2022-07-28T01:54:14.809Z,2.50
2022-07-28T01:56:44.338Z,2.20
2022-07-28T01:59:14.142Z,2.33
2022-07-28T02:01:45.977Z,2.28
2022-07-28T02:04:18.283Z,2.45
2022-07-28T02:06:48.163Z,2.40
2022-07-28T02:09:18.016Z,2.05
2022-07-28T02:11:47.298Z,2.35
2022-07-28T02:14:19.322Z,2.45
2022-07-28T02:16:51.922Z,2.38
2022-07-28T02:19:21.668Z,2.70
2022-07-28T02:21:51.435Z,2.40
2022-07-28T02:24:23.200Z,2.60
2022-07-28T02:27:06.216Z,2.65
2022-07-28T02:29:51.621Z,2.53
2022-07-28T02:32:29.465Z,2.20
2022-07-28T02:35:06.948Z,2.60
2022-07-28T02:37:41.197Z,2.70
2022-07-28T02:40:15.375Z,2.60
2022-07-28T02:42:47.736Z,2.28
2022-07-28T02:45:18.619Z,2.50
2022-07-28T02:47:52.082Z,2.60
2022-07-28T02:50:23.288Z,2.63
2022-07-28T02:52:55.309Z,2.45
2022-07-28T02:55:24.805Z,2.28
2022-07-28T02:57:56.829Z,2.38
2022-07-28T03:00:26.873Z,2.67
2022-07-28T03:02:56.621Z,2.45
2022-07-28T03:05:25.946Z,2.42
2022-07-28T03:07:56.739Z,2.78
2022-07-28T03:10:34.159Z,2.53
2022-07-28T03:13:05.471Z,2.70
2022-07-28T03:15:35.859Z,2.53
2022-07-28T03:18:05.959Z,2.97
2022-07-28T03:20:34.620Z,2.78
2022-07-28T03:23:02.888Z,3.20
2022-07-28T03:26:09.614Z,2.33
2022-07-28T03:28:40.001Z,2.60
2022-07-28T03:31:14.096Z,2.40
2022-07-28T03:33:42.748Z,2.35
2022-07-28T03:36:14.248Z,2.50
2022-07-28T03:39:03.013Z,2.40
2022-07-28T03:41:33.862Z,2.10
2022-07-28T03:44:05.314Z,2.70
2022-07-28T03:46:34.222Z,2.20
2022-07-28T03:49:02.774Z,2.40
2022-07-28T03:51:31.007Z,2.40
2022-07-28T03:53:59.346Z,2.20
2022-07-28T03:56:27.559Z,2.15
2022-07-28T03:58:55.840Z,2.33
2022-07-28T04:01:24.223Z,2.65
2022-07-28T04:03:52.483Z,2.15
2022-07-28T04:06:20.762Z,2.40
2022-07-28T04:08:49.156Z,2.15
2022-07-28T04:11:17.454Z,2.25
2022-07-28T04:13:45.665Z,2.53
2022-07-28T04:16:14.246Z,2.50
2022-07-28T04:18:42.572Z,2.30
2022-07-28T04:21:10.774Z,2.50
2022-07-28T04:23:39.147Z,2.30
2022-07-28T04:26:07.370Z,1.90
2022-07-28T04:28:35.793Z,2.10
2022-07-28T04:31:04.297Z,2.20
2022-07-28T04:33:33.824Z,2.22
2022-07-28T04:36:02.343Z,2.05
2022-07-28T04:38:30.760Z,1.90
2022-07-28T04:40:59.023Z,2.22
2022-07-28T04:43:27.333Z,2.10
2022-07-28T04:45:56.065Z,1.88
2022-07-28T04:48:24.478Z,1.90
2022-07-28T04:50:53.400Z,2.28
2022-07-28T04:53:22.807Z,1.90
2022-07-28T04:55:53.639Z,1.90
2022-07-28T04:58:24.520Z,2.30
2022-07-28T05:00:52.993Z,2.20
2022-07-28T05:03:21.585Z,2.17
2022-07-28T05:05:53.883Z,2.10
2022-07-28T05:08:25.458Z,2.15
2022-07-28T05:10:56.362Z,1.77
2022-07-28T05:13:27.768Z,2.25
2022-07-28T05:16:00.206Z,1.92
2022-07-28T05:18:29.118Z,2.13
2022-07-28T05:20:57.381Z,2.03
2022-07-28T05:23:25.769Z,2.30
2022-07-28T05:25:53.974Z,2.00
2022-07-28T05:28:22.505Z,2.30
2022-07-28T05:30:51.017Z,2.13
2022-07-28T05:33:19.395Z,1.77
2022-07-28T05:35:53.803Z,2.00
2022-07-28T05:38:22.353Z,2.35
2022-07-28T05:40:51.152Z,1.90
2022-07-28T05:43:20.637Z,2.10
2022-07-28T05:45:49.405Z,2.17
2022-07-28T05:48:21.574Z,2.08
2022-07-28T05:50:51.299Z,1.98
2022-07-28T05:53:19.740Z,1.80
2022-07-28T05:56:00.101Z,1.90
2022-07-28T05:58:31.199Z,2.20
2022-07-28T06:01:02.825Z,1.95
2022-07-28T06:03:35.933Z,2.00
2022-07-28T06:06:14.960Z,1.83
2022-07-28T06:08:48.678Z,2.08
2022-07-28T06:13:52.728Z,2.40
2022-07-28T06:16:22.934Z,2.00
2022-07-28T06:18:52.164Z,2.38
2022-07-28T06:21:23.159Z,2.22
2022-07-28T06:23:51.585Z,1.67
2022-07-28T06:26:23.468Z,1.70
2022-07-28T06:28:52.739Z,1.92
2022-07-28T06:31:21.215Z,1.83
2022-07-28T06:33:49.494Z,1.80
2022-07-28T06:36:18.021Z,1.73
2022-07-28T06:38:46.526Z,2.08
2022-07-28T06:41:14.879Z,1.73
2022-07-28T06:43:43.126Z,2.00
2022-07-28T06:46:11.792Z,2.00
2022-07-28T06:48:41.902Z,1.67
2022-07-28T06:51:10.121Z,1.77
2022-07-28T06:53:38.565Z,1.80
2022-07-28T06:56:06.904Z,1.90
2022-07-28T06:58:35.829Z,2.00
2022-07-28T07:01:07.958Z,1.90
2022-07-28T07:03:36.423Z,1.67
2022-07-28T07:06:04.666Z,1.67
2022-07-28T07:08:33.663Z,1.90
2022-07-28T07:11:02.248Z,1.63
2022-07-28T07:13:30.529Z,1.73
2022-07-28T07:15:59.348Z,2.08
2022-07-28T07:18:27.958Z,1.92
2022-07-28T07:20:57.736Z,1.67
2022-07-28T07:23:26.730Z,1.70
2022-07-28T07:25:55.124Z,1.80
2022-07-28T07:28:23.359Z,1.98
2022-07-28T07:30:51.853Z,1.50
2022-07-28T07:33:20.135Z,1.83
2022-07-28T07:35:48.904Z,1.85
2022-07-28T07:38:17.406Z,1.48
2022-07-28T07:40:45.777Z,1.60
2022-07-28T07:43:14.132Z,1.73
2022-07-28T07:45:42.583Z,1.63
2022-07-28T07:48:11.332Z,2.00
2022-07-28T07:50:39.542Z,2.00
2022-07-28T07:53:08.006Z,1.40
2022-07-28T07:55:37.611Z,1.63
2022-07-28T07:58:06.740Z,1.70
2022-07-28T08:00:35.209Z,1.52
2022-07-28T08:03:03.672Z,1.73
2022-07-28T08:05:35.574Z,1.50
2022-07-28T08:08:05.591Z,1.80
2022-07-28T08:10:38.468Z,1.58
2022-07-28T08:13:07.903Z,1.60
2022-07-28T08:15:36.241Z,1.60
2022-07-28T08:18:04.596Z,1.70
2022-07-28T08:20:33.125Z,1.88
2022-07-28T08:23:01.409Z,1.63
2022-07-28T08:25:29.743Z,1.63
2022-07-28T08:27:58.135Z,1.50
2022-07-28T08:30:31.979Z,1.65
2022-07-28T08:33:02.555Z,1.67
2022-07-28T08:35:34.341Z,1.27
2022-07-28T08:38:05.162Z,1.33
2022-07-28T08:40:35.597Z,1.70
2022-07-28T08:43:21.101Z,1.80
2022-07-28T08:45:58.060Z,1.45
2022-07-28T08:48:32.466Z,1.60
2022-07-28T08:51:11.755Z,1.80
2022-07-28T08:53:41.028Z,1.75
2022-07-28T08:56:16.118Z,1.40
2022-07-28T08:58:44.623Z,1.65
2022-07-28T09:01:13.419Z,1.40
2022-07-28T09:03:41.877Z,1.70
2022-07-28T09:06:10.410Z,1.58
2022-07-28T09:08:38.935Z,1.40
2022-07-28T09:11:08.455Z,1.40
2022-07-28T09:13:36.795Z,2.00
2022-07-28T09:16:07.263Z,1.40
2022-07-28T09:18:35.672Z,1.48
2022-07-28T09:21:03.908Z,1.33
2022-07-28T09:23:49.793Z,1.30
2022-07-28T09:26:18.207Z,1.40
2022-07-28T09:28:52.583Z,1.70
2022-07-28T09:31:22.894Z,1.38
2022-07-28T09:34:01.019Z,1.80
2022-07-28T09:36:31.210Z,1.42
2022-07-28T09:38:59.805Z,1.20
2022-07-28T09:41:28.090Z,1.35
2022-07-28T09:43:56.308Z,1.48
2022-07-28T09:46:27.519Z,1.55
2022-07-28T09:49:00.562Z,1.50
2022-07-28T09:51:31.393Z,1.35
2022-07-28T09:54:18.018Z,1.58
2022-07-28T09:56:46.941Z,1.30
2022-07-28T09:59:16.085Z,1.52
2022-07-28T10:02:12.528Z,1.63
2022-07-28T10:04:42.264Z,1.50
2022-07-28T10:07:20.078Z,1.40
2022-07-28T10:10:07.231Z,1.63
2022-07-28T10:12:37.381Z,1.42
2022-07-28T10:15:35.620Z,1.60
2022-07-28T10:18:05.217Z,1.50
2022-07-28T10:20:34.337Z,1.60
2022-07-28T10:23:06.864Z,1.65
2022-07-28T10:25:36.975Z,1.30
2022-07-28T10:28:11.689Z,1.40
2022-07-28T10:30:41.447Z,1.40
2022-07-28T10:33:15.220Z,1.90
2022-07-28T10:35:55.494Z,1.60
2022-07-28T10:38:30.357Z,1.27
2022-07-28T10:41:03.398Z,1.60
2022-07-28T10:43:32.823Z,1.40
2022-07-28T10:46:06.089Z,1.60
2022-07-28T10:48:38.894Z,1.50
2022-07-28T10:51:07.697Z,1.42
2022-07-28T10:54:01.309Z,1.60
2022-07-28T10:56:41.413Z,1.50
2022-07-28T10:59:36.844Z,1.50
2022-07-28T11:02:05.428Z,1.40
2022-07-28T11:04:48.507Z,1.40
2022-07-28T11:07:18.739Z,1.25
2022-07-28T11:09:50.311Z,1.30
2022-07-28T11:12:49.026Z,1.10
2022-07-28T11:15:32.588Z,1.58
2022-07-28T11:18:08.855Z,1.45
2022-07-28T11:21:07.988Z,1.58
2022-07-28T11:23:46.153Z,1.42
2022-07-28T11:26:21.196Z,1.40
2022-07-28T11:29:04.679Z,1.50
2022-07-28T11:31:45.306Z,1.60
2022-07-28T11:34:15.579Z,1.27
2022-07-28T11:37:04.844Z,1.40
2022-07-28T11:39:42.687Z,1.20
2022-07-28T11:42:31.005Z,1.30
2022-07-28T11:45:22.935Z,1.40
2022-07-28T11:48:14.569Z,1.20
2022-07-28T11:51:03.412Z,1.47
2022-07-28T11:53:53.028Z,1.45
2022-07-28T11:56:25.957Z,1.25
2022-07-28T11:58:59.558Z,1.50
2022-07-28T12:01:31.995Z,1.23
2022-07-28T12:04:10.439Z,1.20
2022-07-28T12:06:40.683Z,1.30
2022-07-28T12:09:11.269Z,1.50
2022-07-28T12:11:41.480Z,1.37
2022-07-28T12:14:15.530Z,1.23
2022-07-28T12:16:49.920Z,1.58
2022-07-28T12:19:20.008Z,1.20
2022-07-28T12:21:55.229Z,1.58
2022-07-28T12:24:45.710Z,1.60
2022-07-28T12:27:16.582Z,1.30
2022-07-28T12:29:57.437Z,1.40
2022-07-28T12:32:35.576Z,1.40
2022-07-28T12:35:04.160Z,1.50
2022-07-28T12:37:32.857Z,1.60
2022-07-28T12:40:02.731Z,1.20
2022-07-28T12:42:32.492Z,1.30
2022-07-28T12:45:04.777Z,1.45
2022-07-28T12:47:33.319Z,1.45
2022-07-28T12:50:20.727Z,1.42
2022-07-28T12:53:10.246Z,1.58
2022-07-28T12:55:40.195Z,1.48
2022-07-28T12:58:21.886Z,1.30
2022-07-28T13:03:26.017Z,1.13
2022-07-28T13:06:02.738Z,1.60
2022-07-28T13:08:44.115Z,1.10
2022-07-28T13:11:42.845Z,1.30
2022-07-28T13:14:03.980Z,1.30
2022-07-28T13:16:34.402Z,1.55
2022-07-28T13:19:05.658Z,1.30
2022-07-28T13:21:58.065Z,1.15
2022-07-28T13:24:29.946Z,1.40
2022-07-28T13:26:59.970Z,1.50
2022-07-28T13:29:28.925Z,1.20
2022-07-28T13:31:57.313Z,1.80
2022-07-28T13:34:25.848Z,1.60
2022-07-28T13:36:54.230Z,1.40
2022-07-28T13:39:22.626Z,1.65
2022-07-28T13:41:57.971Z,1.88
2022-07-28T13:44:28.447Z,1.70
2022-07-28T13:46:58.924Z,1.75
2022-07-28T13:49:29.461Z,1.70
2022-07-28T13:51:59.449Z,1.70
2022-07-28T13:54:28.884Z,1.63
2022-07-28T13:56:57.153Z,1.50
2022-07-28T13:59:26.411Z,1.65
2022-07-28T14:01:57.889Z,1.58
2022-07-28T14:04:51.380Z,1.60
2022-07-28T14:07:20.540Z,1.55
2022-07-28T14:09:51.185Z,1.70
2022-07-28T14:12:19.547Z,1.55
2022-07-28T14:14:48.641Z,1.90
2022-07-28T14:17:43.329Z,1.60
2022-07-28T14:20:13.983Z,1.73
2022-07-28T14:22:44.132Z,1.95
2022-07-28T14:25:21.036Z,1.58
2022-07-28T14:27:55.412Z,1.90
2022-07-28T14:30:26.084Z,1.92
2022-07-28T14:32:55.796Z,1.80
2022-07-28T14:35:24.211Z,1.73
2022-07-28T14:38:42.042Z,1.75
2022-07-28T14:40:41.807Z,1.48
2022-07-28T14:43:10.343Z,2.10
2022-07-28T14:46:00.504Z,1.75
2022-07-28T14:48:27.277Z,1.95
2022-07-28T14:50:57.163Z,1.77
2022-07-28T14:53:27.985Z,1.80
2022-07-28T14:55:56.935Z,1.60
2022-07-28T14:58:25.965Z,1.90
2022-07-28T15:00:56.168Z,1.73
2022-07-28T15:03:35.719Z,1.65
2022-07-28T15:06:04.828Z,1.60
2022-07-28T15:08:33.374Z,1.63
2022-07-28T15:11:01.582Z,1.65
2022-07-28T15:13:29.976Z,1.45
2022-07-28T15:16:00.260Z,1.48
2022-07-28T15:18:28.779Z,1.67
2022-07-28T15:20:57.195Z,1.42
2022-07-28T15:23:25.786Z,1.63
2022-07-28T15:25:56.190Z,1.90
2022-07-28T15:28:24.519Z,1.70
2022-07-28T15:30:53.238Z,1.60
2022-07-28T15:33:21.526Z,1.95
2022-07-28T15:35:57.912Z,1.50
2022-07-28T15:38:29.511Z,1.60
2022-07-28T15:41:00.446Z,1.60
2022-07-28T15:43:29.771Z,1.70
2022-07-28T15:45:58.062Z,1.50
2022-07-28T15:48:26.301Z,1.45
2022-07-28T15:50:54.715Z,1.50
2022-07-28T15:53:23.244Z,1.45
2022-07-28T15:55:52.036Z,1.48
2022-07-28T15:58:21.971Z,1.20
2022-07-28T16:00:50.737Z,1.50
2022-07-28T16:03:19.716Z,1.70
2022-07-28T16:05:51.499Z,1.60
2022-07-28T16:10:54.240Z,1.60
2022-07-28T16:13:37.188Z,1.35
2022-07-28T16:16:08.209Z,1.63
2022-07-28T16:18:38.452Z,1.58
2022-07-28T16:21:08.876Z,1.33
2022-07-28T16:23:37.903Z,2.00
2022-07-28T16:26:08.244Z,1.98
2022-07-28T16:28:36.856Z,1.40
2022-07-28T16:31:05.587Z,1.50
2022-07-28T16:33:34.344Z,1.40
2022-07-28T16:36:02.936Z,1.95
2022-07-28T16:38:31.273Z,1.30
2022-07-28T16:40:59.564Z,1.52
2022-07-28T16:43:28.040Z,1.52
2022-07-28T16:45:56.545Z,1.48
2022-07-28T16:48:25.023Z,1.40
2022-07-28T16:50:53.478Z,1.58
2022-07-28T16:53:21.993Z,1.45
2022-07-28T16:55:50.422Z,1.38
2022-07-28T16:58:20.486Z,1.30
2022-07-28T17:00:50.147Z,1.40
2022-07-28T17:03:18.563Z,1.70
2022-07-28T17:05:47.284Z,1.50
2022-07-28T17:08:15.510Z,1.55
2022-07-28T17:10:45.636Z,1.40
2022-07-28T17:13:15.619Z,1.40
2022-07-28T17:15:43.969Z,1.65
2022-07-28T17:18:12.568Z,1.25
2022-07-28T17:20:42.155Z,1.40
2022-07-28T17:23:10.955Z,1.70
2022-07-28T17:26:20.431Z,1.50
2022-07-28T17:28:28.785Z,1.60
2022-07-28T17:30:57.320Z,1.50
2022-07-28T17:33:31.306Z,1.42
2022-07-28T17:36:00.276Z,1.35
2022-07-28T17:38:32.989Z,1.52
2022-07-28T17:41:04.378Z,1.40
2022-07-28T17:43:33.339Z,1.58
2022-07-28T17:46:02.865Z,1.17
2022-07-28T17:48:36.846Z,1.40
2022-07-28T17:51:05.352Z,1.55
2022-07-28T17:53:39.035Z,1.38
2022-07-28T17:56:09.044Z,1.40
2022-07-28T17:58:38.756Z,1.73
2022-07-28T18:01:11.948Z,1.38
2022-07-28T18:03:59.264Z,1.48
2022-07-28T18:06:30.724Z,1.50
2022-07-28T18:09:06.571Z,1.73
2022-07-28T18:11:58.016Z,1.50
2022-07-28T18:14:27.695Z,1.67
2022-07-28T18:16:57.189Z,1.60
2022-07-28T18:19:26.735Z,1.60
2022-07-28T18:21:56.166Z,1.50
2022-07-28T18:24:24.793Z,1.60
2022-07-28T18:26:53.762Z,1.83
2022-07-28T18:29:22.623Z,1.60
2022-07-28T18:31:51.397Z,1.50
2022-07-28T18:34:20.830Z,1.55
2022-07-28T18:36:56.122Z,1.55
2022-07-28T18:39:24.390Z,1.20
2022-07-28T18:41:56.457Z,2.22
2022-07-28T18:44:24.849Z,2.17
2022-07-28T18:46:53.244Z,1.98
2022-07-28T18:49:21.732Z,2.10
2022-07-28T18:51:50.582Z,2.47
2022-07-28T18:54:27.048Z,2.08
2022-07-28T18:56:56.907Z,2.08
2022-07-28T18:59:25.465Z,2.00
2022-07-28T19:01:54.056Z,1.80
2022-07-28T19:04:22.699Z,2.10
2022-07-28T19:06:51.351Z,1.90
2022-07-28T19:09:19.967Z,1.85
2022-07-28T19:11:48.474Z,1.60
2022-07-28T19:14:17.680Z,1.77
2022-07-28T19:16:46.373Z,1.60
2022-07-28T19:19:15.012Z,1.73
2022-07-28T19:21:43.931Z,1.70
2022-07-28T19:24:19.934Z,1.65
2022-07-28T19:26:51.253Z,2.03
2022-07-28T19:29:20.305Z,1.88
2022-07-28T19:31:48.670Z,1.88
2022-07-28T19:34:17.582Z,2.08
2022-07-28T19:36:46.602Z,1.90
2022-07-28T19:39:14.880Z,1.90
2022-07-28T19:41:43.279Z,2.90
2022-07-28T19:44:12.295Z,2.40
2022-07-28T19:46:41.093Z,2.03
2022-07-28T19:49:09.621Z,2.22
2022-07-28T19:51:38.701Z,2.47
2022-07-28T19:54:07.174Z,2.15
2022-07-28T19:56:38.607Z,2.13
2022-07-28T19:59:07.049Z,2.08
2022-07-28T20:01:35.364Z,2.60
2022-07-28T20:04:05.457Z,2.08
2022-07-28T20:06:34.982Z,2.20
2022-07-28T20:09:04.304Z,2.00
2022-07-28T20:11:33.446Z,2.38
2022-07-28T20:14:01.861Z,1.98
2022-07-28T20:16:30.825Z,2.47
2022-07-28T20:18:59.763Z,2.22
2022-07-28T20:21:28.382Z,1.90
2022-07-28T20:23:57.833Z,2.28
2022-07-28T20:26:27.058Z,2.15
2022-07-28T20:28:58.621Z,2.10
2022-07-28T20:31:27.681Z,1.90
2022-07-28T20:33:56.960Z,1.85
2022-07-28T20:36:29.673Z,2.08
2022-07-28T20:38:58.556Z,1.90
2022-07-28T20:41:26.899Z,2.70
2022-07-28T20:44:26.351Z,2.25
2022-07-28T20:46:43.888Z,2.10
2022-07-28T20:49:12.179Z,1.73
2022-07-28T20:51:50.687Z,2.13
2022-07-28T20:54:20.999Z,2.13
2022-07-28T20:56:49.345Z,2.40
2022-07-28T20:59:17.664Z,2.00
2022-07-28T21:01:46.228Z,2.20
2022-07-28T21:04:14.870Z,2.30
2022-07-28T21:06:50.142Z,1.83
2022-07-28T21:09:20.847Z,1.73
2022-07-28T21:11:49.146Z,2.10
2022-07-28T21:14:17.833Z,2.00
2022-07-28T21:16:46.715Z,1.88
2022-07-28T21:19:15.028Z,1.88
2022-07-28T21:21:43.234Z,1.98
2022-07-28T21:24:11.955Z,1.80
2022-07-28T21:26:43.987Z,1.98
2022-07-28T21:29:12.857Z,1.90
2022-07-28T21:32:03.784Z,2.10
2022-07-28T21:34:32.276Z,2.00
2022-07-28T21:37:07.025Z,1.80
2022-07-28T21:39:35.905Z,2.00
2022-07-28T21:42:07.744Z,2.00
2022-07-28T21:44:37.718Z,2.05
2022-07-28T21:47:06.407Z,2.30
2022-07-28T21:49:35.123Z,1.83
2022-07-28T21:52:03.729Z,1.90
2022-07-28T21:54:32.041Z,1.80
2022-07-28T21:57:00.349Z,1.88
2022-07-28T21:59:28.730Z,1.88
2022-07-28T22:01:57.026Z,2.00
2022-07-28T22:04:25.764Z,1.73
2022-07-28T22:06:54.403Z,1.75
2022-07-28T22:09:22.862Z,1.70
2022-07-28T22:11:51.157Z,2.05
2022-07-28T22:14:19.839Z,1.80
2022-07-28T22:16:48.401Z,1.70
2022-07-28T22:19:16.816Z,1.90
2022-07-28T22:21:45.280Z,1.50
2022-07-28T22:24:17.024Z,1.73
2022-07-28T22:26:45.734Z,1.65
2022-07-28T22:29:14.934Z,1.92
2022-07-28T22:31:44.025Z,2.30
2022-07-28T22:34:12.900Z,1.80
2022-07-28T22:36:41.489Z,2.05
2022-07-28T22:39:09.703Z,1.98
2022-07-28T22:41:37.965Z,1.85
2022-07-28T22:44:07.604Z,1.70
2022-07-28T22:46:35.874Z,1.92
2022-07-28T22:49:04.258Z,1.50
2022-07-28T22:51:32.783Z,2.08
2022-07-28T22:54:01.127Z,1.73
2022-07-28T22:56:37.440Z,1.75
2022-07-28T22:59:06.635Z,1.50
2022-07-28T23:01:35.503Z,1.75
2022-07-28T23:04:04.451Z,1.75
2022-07-28T23:06:33.651Z,1.80
2022-07-28T23:09:01.898Z,1.70
2022-07-28T23:11:30.102Z,1.65
2022-07-28T23:13:58.458Z,1.30
2022-07-28T23:16:26.743Z,1.80
2022-07-28T23:18:55.281Z,1.70
2022-07-28T23:21:23.881Z,1.55
2022-07-28T23:23:52.055Z,1.55
2022-07-28T23:26:20.335Z,1.83
2022-07-28T23:28:48.741Z,1.60
2022-07-28T23:31:17.164Z,1.50
2022-07-28T23:33:56.535Z,1.80
2022-07-28T23:36:27.757Z,1.67
2022-07-28T23:38:57.753Z,1.77
2022-07-28T23:41:27.153Z,2.05
2022-07-28T23:43:55.574Z,1.50
2022-07-28T23:46:24.352Z,1.60
2022-07-28T23:48:53.088Z,2.05
2022-07-28T23:51:22.658Z,1.95
2022-07-28T23:54:11.037Z,1.50
2022-07-28T23:56:43.529Z,1.60
2022-07-28T23:59:14.388Z,1.42
